Aérodrome :
LOGIN :

S'inscrire | Disclaimer

   EN    FR    IT 

 










Légende :    VFR   VFR Marginal   IFR   IFR Intensif   IFR Très Intensif
Visi : 
Plafond : 
>= 8 km
>= 3000ft
5 à 8 km
1000 à 3000 ft
1500m à 5 km
500 à 1000 ft
800 à 1500m
200 à 500 ft
< 800m
< 200 ft
Symboles :   Orages  Brouillard  Fortes neiges  Fortes précipitations  Vent > 20 kt
SIGMETs :   Divers  Orages  Givrage  Turbulence  Onde Orograph.  Cendres Volcan.






- Altitude de l'aérodrome : 512 ft
- Code IATA : URO


LFOP - Rouen Vallée de Seine

DERNIER METAR :
  • 221500Z AUTO 26010KT 240V310 9999 FEW026 SCT035 07/03 Q0996 TEMPO 4000 SHRA BKN015TCU

METARs EXPIRÉS :
  • 221430Z AUTO 27008KT 240V310 9999 SCT025 BKN030 08/03 Q0996 TEMPO 4000 SHRA BKN015TCU
  • 221400Z AUTO 26008KT 9999 BKN024 BKN029 BKN250 07/03 Q0996 TEMPO 4000 SHRA BKN015TCU
  • 221330Z AUTO 27008KT 240V300 9999 FEW026 SCT050 BKN066 08/04 Q0996 TEMPO 4000 SHRA BKN015TCU
  • 221300Z AUTO 26007KT 9999 SCT049 BKN056 07/03 Q0996 NOSIG
  • 221230Z AUTO 26009KT 9999 BKN018 BKN023 08/04 Q0996 NOSIG

TAF TAF LFOP
Valide du 22 à 12h jusqu'au 23 à 12h UTC


221100Z 2212/2312 25005KT 9999 SCT012 BKN030
TEMPO 2215/2302 4000 SHRA BKN015TCU
PROB40 2305/2308 2000 BR OVC002
TEMPO 2308/2312 2000 SNRA BKN002 OVC010
ATIS : +33 2 35 80 80 34
Météo : +33 2 32 86 52 80



MET'MAP, la Météo Aéronautique d'un coup d'oeil ! - Copyright ORBIFLY Décembre 2007 - Disclaimer

ORBIFLY MET'MAP TEAM :

Programmation & Développement : Alexandra Zaïnal
Sur une idée originale de : Baudouin d'Aumeries
Assistance à la programmation : Marc-Olivier Méhu
Soutien technique & logistique : Manuel Goepfert

Contact : metmap@orbifly.com




SOURCES & CREDITS :

   NOAA